sensor_id;sensor_type;location;lat;lon;timestamp;pressure;altitude;pressure_sealevel;temperature
67822;BMP180;54434;50.096;20.082;2023-07-13T06:45:48;98576.00;;;29.64
67822;BMP180;54434;50.096;20.082;2023-07-13T09:44:14;98530.60;;;29.22
67822;BMP180;54434;50.096;20.082;2023-07-13T09:46:56;98531.80;;;29.00
67822;BMP180;54434;50.096;20.082;2023-07-13T09:49:38;98535.00;;;28.70
67822;BMP180;54434;50.096;20.082;2023-07-13T09:52:18;98532.60;;;28.40
67822;BMP180;54434;50.096;20.082;2023-07-13T09:54:57;98536.00;;;28.20
67822;BMP180;54434;50.096;20.082;2023-07-13T09:57:34;98537.80;;;28.00
67822;BMP180;54434;50.096;20.082;2023-07-13T10:00:29;98540.20;;;27.80
67822;BMP180;54434;50.096;20.082;2023-07-13T10:03:19;98541.00;;;27.60
67822;BMP180;54434;50.096;20.082;2023-07-13T10:06:06;98545.80;;;27.46
67822;BMP180;54434;50.096;20.082;2023-07-13T10:08:50;98543.00;;;27.20
67822;BMP180;54434;50.096;20.082;2023-07-13T10:11:30;98542.40;;;27.00
67822;BMP180;54434;50.096;20.082;2023-07-13T10:14:21;98541.60;;;26.90
67822;BMP180;54434;50.096;20.082;2023-07-13T10:17:10;98539.60;;;26.70
67822;BMP180;54434;50.096;20.082;2023-07-13T10:19:50;98539.80;;;26.50
67822;BMP180;54434;50.096;20.082;2023-07-13T10:22:36;98540.00;;;26.40
67822;BMP180;54434;50.096;20.082;2023-07-13T10:25:22;98541.40;;;26.20
67822;BMP180;54434;50.096;20.082;2023-07-13T10:28:09;98544.80;;;26.00
67822;BMP180;54434;50.096;20.082;2023-07-13T10:30:48;98551.60;;;25.80
67822;BMP180;54434;50.096;20.082;2023-07-13T10:33:25;98552.00;;;25.70
67822;BMP180;54434;50.096;20.082;2023-07-13T10:36:30;98556.60;;;25.60
67822;BMP180;54434;50.096;20.082;2023-07-13T10:39:10;98559.40;;;25.40
67822;BMP180;54434;50.096;20.082;2023-07-13T10:41:55;98558.20;;;25.30
67822;BMP180;54434;50.096;20.082;2023-07-13T10:44:35;98563.20;;;25.18
67822;BMP180;54434;50.096;20.082;2023-07-13T10:47:17;98572.00;;;25.00
67822;BMP180;54434;50.096;20.082;2023-07-13T10:49:59;98580.20;;;24.84
67822;BMP180;54434;50.096;20.082;2023-07-13T10:52:51;98584.40;;;24.68
67822;BMP180;54434;50.096;20.082;2023-07-13T10:55:57;98587.40;;;24.42
67822;BMP180;54434;50.096;20.082;2023-07-13T10:58:40;98588.00;;;24.30
67822;BMP180;54434;50.096;20.082;2023-07-13T11:01:19;98589.20;;;24.10
67822;BMP180;54434;50.096;20.082;2023-07-13T11:04:04;98586.20;;;24.00
67822;BMP180;54434;50.096;20.082;2023-07-13T11:06:44;98594.80;;;23.80
67822;BMP180;54434;50.096;20.082;2023-07-13T11:09:40;98598.20;;;23.70
67822;BMP180;54434;50.096;20.082;2023-07-13T11:12:53;98609.80;;;23.60
67822;BMP180;54434;50.096;20.082;2023-07-13T11:15:48;98624.60;;;23.46
67822;BMP180;54434;50.096;20.082;2023-07-13T11:18:28;98625.00;;;23.30
67822;BMP180;54434;50.096;20.082;2023-07-13T11:21:21;98613.40;;;23.10
67822;BMP180;54434;50.096;20.082;2023-07-13T11:24:18;98608.60;;;22.90
67822;BMP180;54434;50.096;20.082;2023-07-13T11:26:56;98602.60;;;22.70
67822;BMP180;54434;50.096;20.082;2023-07-13T11:29:41;98615.60;;;22.50
67822;BMP180;54434;50.096;20.082;2023-07-13T11:32:34;98626.40;;;22.40
67822;BMP180;54434;50.096;20.082;2023-07-13T11:35:22;98641.80;;;22.30
67822;BMP180;54434;50.096;20.082;2023-07-13T11:37:59;98649.20;;;22.20
67822;BMP180;54434;50.096;20.082;2023-07-13T11:40:36;98658.20;;;22.00
67822;BMP180;54434;50.096;20.082;2023-07-13T11:43:16;98674.00;;;21.80
67822;BMP180;54434;50.096;20.082;2023-07-13T11:45:53;98673.40;;;21.70
67822;BMP180;54434;50.096;20.082;2023-07-13T11:48:33;98692.40;;;21.60
67822;BMP180;54434;50.096;20.082;2023-07-13T11:51:26;98719.40;;;21.36
67822;BMP180;54434;50.096;20.082;2023-07-13T11:54:24;98761.60;;;20.90
67822;BMP180;54434;50.096;20.082;2023-07-13T11:57:23;98763.20;;;20.08
67822;BMP180;54434;50.096;20.082;2023-07-13T12:00:03;98789.40;;;19.26
67822;BMP180;54434;50.096;20.082;2023-07-13T12:02:45;98795.60;;;18.74
67822;BMP180;54434;50.096;20.082;2023-07-13T12:05:23;98794.00;;;18.40
67822;BMP180;54434;50.096;20.082;2023-07-13T12:08:00;98782.40;;;18.10
67822;BMP180;54434;50.096;20.082;2023-07-13T12:11:05;98774.60;;;17.84
67822;BMP180;54434;50.096;20.082;2023-07-13T12:13:49;98777.00;;;17.68
67822;BMP180;54434;50.096;20.082;2023-07-13T12:16:33;98776.20;;;17.50
67822;BMP180;54434;50.096;20.082;2023-07-13T12:19:22;98776.60;;;17.40
67822;BMP180;54434;50.096;20.082;2023-07-13T12:22:00;98778.20;;;17.30
67822;BMP180;54434;50.096;20.082;2023-07-13T12:24:38;98775.00;;;17.30
67822;BMP180;54434;50.096;20.082;2023-07-13T12:27:25;98782.80;;;17.30
67822;BMP180;54434;50.096;20.082;2023-07-13T12:30:27;98778.00;;;17.30
67822;BMP180;54434;50.096;20.082;2023-07-13T12:33:15;98778.60;;;17.20
67822;BMP180;54434;50.096;20.082;2023-07-13T12:35:54;98779.60;;;17.20
67822;BMP180;54434;50.096;20.082;2023-07-13T12:38:33;98777.40;;;17.20
67822;BMP180;54434;50.096;20.082;2023-07-13T12:41:11;98774.20;;;17.20
67822;BMP180;54434;50.096;20.082;2023-07-13T12:43:48;98771.20;;;17.20
67822;BMP180;54434;50.096;20.082;2023-07-13T12:46:27;98768.60;;;17.30
67822;BMP180;54434;50.096;20.082;2023-07-13T12:49:12;98764.40;;;17.30
67822;BMP180;54434;50.096;20.082;2023-07-13T12:52:00;98758.80;;;17.30
67822;BMP180;54434;50.096;20.082;2023-07-13T12:54:40;98756.20;;;17.30
67822;BMP180;54434;50.096;20.082;2023-07-13T12:57:29;98749.40;;;17.30
67822;BMP180;54434;50.096;20.082;2023-07-13T13:00:24;98745.60;;;17.40
67822;BMP180;54434;50.096;20.082;2023-07-13T13:03:07;98744.60;;;17.44
67822;BMP180;54434;50.096;20.082;2023-07-13T13:06:20;98738.20;;;17.50
67822;BMP180;54434;50.096;20.082;2023-07-13T13:09:00;98741.80;;;17.62
67822;BMP180;54434;50.096;20.082;2023-07-13T13:11:36;98748.00;;;17.70
67822;BMP180;54434;50.096;20.082;2023-07-13T13:14:13;98744.40;;;17.80
67822;BMP180;54434;50.096;20.082;2023-07-13T13:16:52;98746.40;;;17.90
67822;BMP180;54434;50.096;20.082;2023-07-13T13:19:31;98750.20;;;17.96
67822;BMP180;54434;50.096;20.082;2023-07-13T13:22:09;98751.20;;;18.00
67822;BMP180;54434;50.096;20.082;2023-07-13T13:24:45;98755.80;;;18.10
67822;BMP180;54434;50.096;20.082;2023-07-13T13:27:24;98761.60;;;18.10
67822;BMP180;54434;50.096;20.082;2023-07-13T13:30:03;98768.80;;;18.20
67822;BMP180;54434;50.096;20.082;2023-07-13T13:32:40;98763.60;;;18.30
67822;BMP180;54434;50.096;20.082;2023-07-13T13:35:20;98762.80;;;18.40
67822;BMP180;54434;50.096;20.082;2023-07-13T13:37:56;98760.20;;;18.50
67822;BMP180;54434;50.096;20.082;2023-07-13T13:40:33;98763.20;;;18.60
67822;BMP180;54434;50.096;20.082;2023-07-13T13:43:24;98765.40;;;18.70
67822;BMP180;54434;50.096;20.082;2023-07-13T13:46:02;98770.60;;;18.80
67822;BMP180;54434;50.096;20.082;2023-07-13T13:48:46;98776.20;;;18.84
67822;BMP180;54434;50.096;20.082;2023-07-13T13:51:25;98782.00;;;18.94
67822;BMP180;54434;50.096;20.082;2023-07-13T13:54:02;98781.60;;;19.00
67822;BMP180;54434;50.096;20.082;2023-07-13T13:56:38;98785.00;;;19.10
67822;BMP180;54434;50.096;20.082;2023-07-13T13:59:15;98784.40;;;19.20
67822;BMP180;54434;50.096;20.082;2023-07-13T14:01:53;98779.00;;;19.30
67822;BMP180;54434;50.096;20.082;2023-07-13T14:04:31;98770.40;;;19.40
67822;BMP180;54434;50.096;20.082;2023-07-13T14:07:08;98776.20;;;19.50
67822;BMP180;54434;50.096;20.082;2023-07-13T14:09:45;98775.60;;;19.60
67822;BMP180;54434;50.096;20.082;2023-07-13T14:12:22;98778.40;;;19.60
67822;BMP180;54434;50.096;20.082;2023-07-13T14:15:00;98781.40;;;19.60
67822;BMP180;54434;50.096;20.082;2023-07-13T14:17:36;98781.00;;;19.64
67822;BMP180;54434;50.096;20.082;2023-07-13T14:20:21;98784.80;;;19.70
67822;BMP180;54434;50.096;20.082;2023-07-13T14:22:59;98777.20;;;19.80
67822;BMP180;54434;50.096;20.082;2023-07-13T14:25:36;98780.40;;;19.92
67822;BMP180;54434;50.096;20.082;2023-07-13T14:28:25;98775.40;;;20.14
67822;BMP180;54434;50.096;20.082;2023-07-13T14:31:02;98775.00;;;20.40
67822;BMP180;54434;50.096;20.082;2023-07-13T14:33:38;98770.80;;;20.60
67822;BMP180;54434;50.096;20.082;2023-07-13T14:36:36;98775.20;;;20.70
67822;BMP180;54434;50.096;20.082;2023-07-13T14:39:18;98779.60;;;20.90
67822;BMP180;54434;50.096;20.082;2023-07-13T14:41:58;98774.60;;;20.90
67822;BMP180;54434;50.096;20.082;2023-07-13T14:44:35;98775.20;;;21.00
67822;BMP180;54434;50.096;20.082;2023-07-13T14:47:12;98770.60;;;21.00
67822;BMP180;54434;50.096;20.082;2023-07-13T14:49:48;98776.80;;;21.10
67822;BMP180;54434;50.096;20.082;2023-07-13T14:52:27;98784.00;;;21.10
67822;BMP180;54434;50.096;20.082;2023-07-13T14:55:04;98784.60;;;21.10
67822;BMP180;54434;50.096;20.082;2023-07-13T14:57:41;98785.80;;;21.20
67822;BMP180;54434;50.096;20.082;2023-07-13T15:00:23;98786.40;;;21.20
67822;BMP180;54434;50.096;20.082;2023-07-13T15:03:02;98791.60;;;21.20
67822;BMP180;54434;50.096;20.082;2023-07-13T15:05:42;98792.80;;;21.30
67822;BMP180;54434;50.096;20.082;2023-07-13T15:08:22;98796.60;;;21.40
67822;BMP180;54434;50.096;20.082;2023-07-13T15:10:58;98809.00;;;21.50
67822;BMP180;54434;50.096;20.082;2023-07-13T15:13:35;98828.40;;;21.60
67822;BMP180;54434;50.096;20.082;2023-07-13T15:16:24;98838.60;;;21.70
67822;BMP180;54434;50.096;20.082;2023-07-13T15:19:01;98838.20;;;21.72
67822;BMP180;54434;50.096;20.082;2023-07-13T15:21:38;98835.40;;;21.80
67822;BMP180;54434;50.096;20.082;2023-07-13T15:24:15;98833.80;;;21.80
67822;BMP180;54434;50.096;20.082;2023-07-13T15:26:51;98823.60;;;21.70
67822;BMP180;54434;50.096;20.082;2023-07-13T15:29:28;98812.60;;;21.60
67822;BMP180;54434;50.096;20.082;2023-07-13T15:32:08;98806.60;;;21.58
67822;BMP180;54434;50.096;20.082;2023-07-13T15:34:45;98806.00;;;21.50
67822;BMP180;54434;50.096;20.082;2023-07-13T15:37:22;98817.00;;;21.50
67822;BMP180;54434;50.096;20.082;2023-07-13T15:39:58;98819.60;;;21.34
67822;BMP180;54434;50.096;20.082;2023-07-13T15:42:35;98820.60;;;21.20
67822;BMP180;54434;50.096;20.082;2023-07-13T15:45:23;98822.20;;;21.00
67822;BMP180;54434;50.096;20.082;2023-07-13T15:48:00;98829.20;;;20.90
67822;BMP180;54434;50.096;20.082;2023-07-13T15:50:46;98827.20;;;20.88
67822;BMP180;54434;50.096;20.082;2023-07-13T15:53:30;98819.20;;;20.80
67822;BMP180;54434;50.096;20.082;2023-07-13T15:56:20;98825.60;;;20.80
67822;BMP180;54434;50.096;20.082;2023-07-13T15:58:58;98830.40;;;20.80
67822;BMP180;54434;50.096;20.082;2023-07-13T16:01:35;98829.20;;;20.80
67822;BMP180;54434;50.096;20.082;2023-07-13T16:04:12;98829.60;;;20.80
67822;BMP180;54434;50.096;20.082;2023-07-13T16:06:50;98833.20;;;20.80
67822;BMP180;54434;50.096;20.082;2023-07-13T16:09:27;98831.20;;;20.70
67822;BMP180;54434;50.096;20.082;2023-07-13T16:12:09;98830.80;;;20.70
67822;BMP180;54434;50.096;20.082;2023-07-13T16:14:46;98842.00;;;20.60
67822;BMP180;54434;50.096;20.082;2023-07-13T16:17:24;98848.40;;;20.50
67822;BMP180;54434;50.096;20.082;2023-07-13T16:20:00;98849.80;;;20.50
67822;BMP180;54434;50.096;20.082;2023-07-13T16:22:38;98857.60;;;20.48
67822;BMP180;54434;50.096;20.082;2023-07-13T16:25:23;98861.40;;;20.40
67822;BMP180;54434;50.096;20.082;2023-07-13T16:28:01;98863.20;;;20.40
67822;BMP180;54434;50.096;20.082;2023-07-13T16:30:37;98866.80;;;20.40
67822;BMP180;54434;50.096;20.082;2023-07-13T16:33:14;98871.20;;;20.30
67822;BMP180;54434;50.096;20.082;2023-07-13T16:35:50;98878.60;;;20.24
67822;BMP180;54434;50.096;20.082;2023-07-13T16:38:28;98881.00;;;20.20
67822;BMP180;54434;50.096;20.082;2023-07-13T16:41:05;98883.80;;;20.20
67822;BMP180;54434;50.096;20.082;2023-07-13T16:43:43;98882.80;;;20.20
67822;BMP180;54434;50.096;20.082;2023-07-13T16:46:24;98881.40;;;20.10
67822;BMP180;54434;50.096;20.082;2023-07-13T16:49:01;98884.20;;;20.00
67822;BMP180;54434;50.096;20.082;2023-07-13T16:51:38;98878.00;;;19.90
67822;BMP180;54434;50.096;20.082;2023-07-13T16:54:14;98882.20;;;19.80
67822;BMP180;54434;50.096;20.082;2023-07-13T16:56:53;98885.80;;;19.70
67822;BMP180;54434;50.096;20.082;2023-07-13T16:59:35;98889.20;;;19.60
67822;BMP180;54434;50.096;20.082;2023-07-13T17:02:34;98892.40;;;19.50
67822;BMP180;54434;50.096;20.082;2023-07-13T17:05:14;98888.60;;;19.40
67822;BMP180;54434;50.096;20.082;2023-07-13T17:07:51;98887.40;;;19.30
67822;BMP180;54434;50.096;20.082;2023-07-13T17:10:29;98885.60;;;19.20
67822;BMP180;54434;50.096;20.082;2023-07-13T17:13:13;98884.40;;;19.20
67822;BMP180;54434;50.096;20.082;2023-07-13T17:15:54;98879.00;;;19.10
67822;BMP180;54434;50.096;20.082;2023-07-13T17:18:34;98874.00;;;19.00
67822;BMP180;54434;50.096;20.082;2023-07-13T17:21:17;98872.60;;;18.94
67822;BMP180;54434;50.096;20.082;2023-07-13T17:23:53;98869.80;;;18.90
67822;BMP180;54434;50.096;20.082;2023-07-13T17:26:30;98872.80;;;18.90
67822;BMP180;54434;50.096;20.082;2023-07-13T17:29:07;98872.40;;;18.80
67822;BMP180;54434;50.096;20.082;2023-07-13T17:31:45;98868.60;;;18.80
67822;BMP180;54434;50.096;20.082;2023-07-13T17:34:22;98863.80;;;18.70
67822;BMP180;54434;50.096;20.082;2023-07-13T17:37:00;98864.60;;;18.70
67822;BMP180;54434;50.096;20.082;2023-07-13T17:39:36;98866.40;;;18.70
67822;BMP180;54434;50.096;20.082;2023-07-13T17:42:15;98857.20;;;18.70
67822;BMP180;54434;50.096;20.082;2023-07-13T17:44:51;98852.80;;;18.70
67822;BMP180;54434;50.096;20.082;2023-07-13T17:47:30;98849.00;;;18.70
67822;BMP180;54434;50.096;20.082;2023-07-13T17:50:14;98845.80;;;18.70
67822;BMP180;54434;50.096;20.082;2023-07-13T17:52:51;98848.60;;;18.70
67822;BMP180;54434;50.096;20.082;2023-07-13T17:55:28;98851.20;;;18.70
67822;BMP180;54434;50.096;20.082;2023-07-13T17:58:05;98854.40;;;18.70
67822;BMP180;54434;50.096;20.082;2023-07-13T18:00:44;98854.00;;;18.70
67822;BMP180;54434;50.096;20.082;2023-07-13T18:03:27;98853.40;;;18.70
67822;BMP180;54434;50.096;20.082;2023-07-13T18:06:13;98858.80;;;18.70
67822;BMP180;54434;50.096;20.082;2023-07-13T18:08:58;98862.40;;;18.70
67822;BMP180;54434;50.096;20.082;2023-07-13T18:11:40;98859.60;;;18.70
67822;BMP180;54434;50.096;20.082;2023-07-13T18:14:17;98857.80;;;18.70
67822;BMP180;54434;50.096;20.082;2023-07-13T18:16:57;98867.60;;;18.70
67822;BMP180;54434;50.096;20.082;2023-07-13T18:19:41;98864.80;;;18.70
67822;BMP180;54434;50.096;20.082;2023-07-13T18:22:19;98862.60;;;18.60
67822;BMP180;54434;50.096;20.082;2023-07-13T18:24:56;98863.00;;;18.60
67822;BMP180;54434;50.096;20.082;2023-07-13T18:27:32;98861.00;;;18.60
67822;BMP180;54434;50.096;20.082;2023-07-13T18:30:14;98864.80;;;18.50
67822;BMP180;54434;50.096;20.082;2023-07-13T18:32:54;98871.00;;;18.50
67822;BMP180;54434;50.096;20.082;2023-07-13T18:35:35;98871.00;;;18.48
67822;BMP180;54434;50.096;20.082;2023-07-13T18:38:21;98870.60;;;18.40
67822;BMP180;54434;50.096;20.082;2023-07-13T18:40:59;98874.40;;;18.38
67822;BMP180;54434;50.096;20.082;2023-07-13T18:43:36;98884.80;;;18.30
67822;BMP180;54434;50.096;20.082;2023-07-13T18:46:23;98884.00;;;18.24
67822;BMP180;54434;50.096;20.082;2023-07-13T18:49:01;98889.20;;;18.20
67822;BMP180;54434;50.096;20.082;2023-07-13T18:51:38;98890.40;;;18.10
67822;BMP180;54434;50.096;20.082;2023-07-13T18:54:17;98890.40;;;18.00
67822;BMP180;54434;50.096;20.082;2023-07-13T18:56:55;98897.20;;;18.00
67822;BMP180;54434;50.096;20.082;2023-07-13T18:59:31;98895.80;;;17.90
67822;BMP180;54434;50.096;20.082;2023-07-13T19:02:16;98899.60;;;17.90
67822;BMP180;54434;50.096;20.082;2023-07-13T19:04:54;98904.60;;;17.80
67822;BMP180;54434;50.096;20.082;2023-07-13T19:07:34;98915.60;;;17.74
67822;BMP180;54434;50.096;20.082;2023-07-13T19:10:17;98929.80;;;17.70
67822;BMP180;54434;50.096;20.082;2023-07-13T19:12:58;98932.60;;;17.62
67822;BMP180;54434;50.096;20.082;2023-07-13T19:15:38;98937.00;;;17.60
67822;BMP180;54434;50.096;20.082;2023-07-13T19:18:19;98934.00;;;17.60
67822;BMP180;54434;50.096;20.082;2023-07-13T19:20:59;98936.40;;;17.60
67822;BMP180;54434;50.096;20.082;2023-07-13T19:23:43;98939.60;;;17.60
67822;BMP180;54434;50.096;20.082;2023-07-13T19:26:26;98940.00;;;17.60
67822;BMP180;54434;50.096;20.082;2023-07-13T19:29:04;98942.80;;;17.60
67822;BMP180;54434;50.096;20.082;2023-07-13T19:31:41;98950.00;;;17.60
67822;BMP180;54434;50.096;20.082;2023-07-13T19:34:24;98954.80;;;17.60
67822;BMP180;54434;50.096;20.082;2023-07-13T19:37:21;98959.00;;;17.58
67822;BMP180;54434;50.096;20.082;2023-07-13T19:39:59;98959.20;;;17.52
67822;BMP180;54434;50.096;20.082;2023-07-13T19:42:37;98955.80;;;17.52
67822;BMP180;54434;50.096;20.082;2023-07-13T19:45:22;98958.80;;;17.60
67822;BMP180;54434;50.096;20.082;2023-07-13T19:47:59;98958.80;;;17.60
67822;BMP180;54434;50.096;20.082;2023-07-13T19:50:38;98957.60;;;17.60
67822;BMP180;54434;50.096;20.082;2023-07-13T19:53:21;98958.00;;;17.66
67822;BMP180;54434;50.096;20.082;2023-07-13T19:55:58;98961.20;;;17.60
67822;BMP180;54434;50.096;20.082;2023-07-13T19:58:35;98956.80;;;17.60
67822;BMP180;54434;50.096;20.082;2023-07-13T20:01:12;98962.00;;;17.60
67822;BMP180;54434;50.096;20.082;2023-07-13T20:03:49;98963.60;;;17.60
67822;BMP180;54434;50.096;20.082;2023-07-13T20:06:33;98953.60;;;17.60
67822;BMP180;54434;50.096;20.082;2023-07-13T20:09:19;98957.00;;;17.50
67822;BMP180;54434;50.096;20.082;2023-07-13T20:12:20;98953.40;;;17.48
67822;BMP180;54434;50.096;20.082;2023-07-13T20:14:58;98946.80;;;17.40
67822;BMP180;54434;50.096;20.082;2023-07-13T20:17:38;98951.40;;;17.32
67822;BMP180;54434;50.096;20.082;2023-07-13T20:20:31;98954.80;;;17.30
67822;BMP180;54434;50.096;20.082;2023-07-13T20:23:14;98950.80;;;17.30
67822;BMP180;54434;50.096;20.082;2023-07-13T20:25:51;98955.80;;;17.20
67822;BMP180;54434;50.096;20.082;2023-07-13T20:28:27;98961.80;;;17.20
67822;BMP180;54434;50.096;20.082;2023-07-13T20:31:04;98954.00;;;17.10
67822;BMP180;54434;50.096;20.082;2023-07-13T20:33:44;98955.20;;;17.10
67822;BMP180;54434;50.096;20.082;2023-07-13T20:36:21;98956.20;;;17.10
67822;BMP180;54434;50.096;20.082;2023-07-13T20:38:57;98956.60;;;17.00
67822;BMP180;54434;50.096;20.082;2023-07-13T20:41:34;98961.40;;;17.00
67822;BMP180;54434;50.096;20.082;2023-07-13T20:44:10;98961.20;;;17.00
67822;BMP180;54434;50.096;20.082;2023-07-13T20:46:47;98963.20;;;16.94
67822;BMP180;54434;50.096;20.082;2023-07-13T20:49:24;98962.60;;;16.90
67822;BMP180;54434;50.096;20.082;2023-07-13T20:52:06;98967.00;;;16.90
67822;BMP180;54434;50.096;20.082;2023-07-13T20:54:45;98968.80;;;16.90
67822;BMP180;54434;50.096;20.082;2023-07-13T20:57:23;98972.60;;;16.82
67822;BMP180;54434;50.096;20.082;2023-07-13T21:00:00;98975.40;;;16.80
67822;BMP180;54434;50.096;20.082;2023-07-13T21:02:36;98976.20;;;16.84
67822;BMP180;54434;50.096;20.082;2023-07-13T21:05:23;98974.00;;;16.80
67822;BMP180;54434;50.096;20.082;2023-07-13T21:08:01;98980.40;;;16.80
67822;BMP180;54434;50.096;20.082;2023-07-13T21:10:38;98976.80;;;16.70
67822;BMP180;54434;50.096;20.082;2023-07-13T21:13:16;98974.20;;;16.70
67822;BMP180;54434;50.096;20.082;2023-07-13T21:15:55;98967.40;;;16.68
67822;BMP180;54434;50.096;20.082;2023-07-13T21:18:31;98965.00;;;16.60
67822;BMP180;54434;50.096;20.082;2023-07-13T21:21:11;98969.20;;;16.60
67822;BMP180;54434;50.096;20.082;2023-07-13T21:23:49;98973.00;;;16.50
67822;BMP180;54434;50.096;20.082;2023-07-13T21:26:27;98978.00;;;16.50
67822;BMP180;54434;50.096;20.082;2023-07-13T21:29:03;98973.80;;;16.50
67822;BMP180;54434;50.096;20.082;2023-07-13T21:31:40;98975.40;;;16.50
67822;BMP180;54434;50.096;20.082;2023-07-13T21:34:21;98983.00;;;16.40
67822;BMP180;54434;50.096;20.082;2023-07-13T21:36:58;98987.80;;;16.40
67822;BMP180;54434;50.096;20.082;2023-07-13T21:39:35;98992.20;;;16.40
67822;BMP180;54434;50.096;20.082;2023-07-13T21:42:14;98993.00;;;16.40
67822;BMP180;54434;50.096;20.082;2023-07-13T21:44:50;98991.60;;;16.40
67822;BMP180;54434;50.096;20.082;2023-07-13T21:47:27;98990.20;;;16.40
67822;BMP180;54434;50.096;20.082;2023-07-13T21:50:05;98988.60;;;16.40
67822;BMP180;54434;50.096;20.082;2023-07-13T21:52:41;98984.80;;;16.34
67822;BMP180;54434;50.096;20.082;2023-07-13T21:55:24;98980.60;;;16.30
67822;BMP180;54434;50.096;20.082;2023-07-13T21:58:02;98981.40;;;16.30
67822;BMP180;54434;50.096;20.082;2023-07-13T22:00:40;98981.20;;;16.30
67822;BMP180;54434;50.096;20.082;2023-07-13T22:03:26;98982.00;;;16.22
67822;BMP180;54434;50.096;20.082;2023-07-13T22:06:04;98981.20;;;16.20
67822;BMP180;54434;50.096;20.082;2023-07-13T22:08:41;98982.80;;;16.20
67822;BMP180;54434;50.096;20.082;2023-07-13T22:11:20;98983.00;;;16.10
67822;BMP180;54434;50.096;20.082;2023-07-13T22:13:57;98986.80;;;16.10
67822;BMP180;54434;50.096;20.082;2023-07-13T22:16:34;98989.80;;;16.10
67822;BMP180;54434;50.096;20.082;2023-07-13T22:19:17;98992.00;;;16.08
67822;BMP180;54434;50.096;20.082;2023-07-13T22:21:53;98989.80;;;16.00
67822;BMP180;54434;50.096;20.082;2023-07-13T22:24:31;98992.60;;;16.00
67822;BMP180;54434;50.096;20.082;2023-07-13T22:27:12;98988.40;;;15.90
67822;BMP180;54434;50.096;20.082;2023-07-13T22:29:50;98985.00;;;15.90
67822;BMP180;54434;50.096;20.082;2023-07-13T22:32:32;98983.60;;;15.90
67822;BMP180;54434;50.096;20.082;2023-07-13T22:35:16;98980.80;;;15.80
67822;BMP180;54434;50.096;20.082;2023-07-13T22:37:53;98983.00;;;15.80
67822;BMP180;54434;50.096;20.082;2023-07-13T22:40:34;98978.60;;;15.72
67822;BMP180;54434;50.096;20.082;2023-07-13T22:43:23;98971.60;;;15.70
67822;BMP180;54434;50.096;20.082;2023-07-13T22:46:03;98972.20;;;15.70
67822;BMP180;54434;50.096;20.082;2023-07-13T22:48:49;98968.00;;;15.60
67822;BMP180;54434;50.096;20.082;2023-07-13T22:51:27;98967.60;;;15.60
67822;BMP180;54434;50.096;20.082;2023-07-13T22:54:08;98968.40;;;15.60
67822;BMP180;54434;50.096;20.082;2023-07-13T22:56:46;98967.80;;;15.50
67822;BMP180;54434;50.096;20.082;2023-07-13T22:59:22;98966.40;;;15.50
67822;BMP180;54434;50.096;20.082;2023-07-13T23:02:00;98965.00;;;15.48
67822;BMP180;54434;50.096;20.082;2023-07-13T23:04:39;98965.20;;;15.40
67822;BMP180;54434;50.096;20.082;2023-07-13T23:07:16;98961.80;;;15.40
67822;BMP180;54434;50.096;20.082;2023-07-13T23:09:54;98961.60;;;15.40
67822;BMP180;54434;50.096;20.082;2023-07-13T23:12:42;98963.00;;;15.38
67822;BMP180;54434;50.096;20.082;2023-07-13T23:15:20;98965.80;;;15.30
67822;BMP180;54434;50.096;20.082;2023-07-13T23:17:57;98967.20;;;15.30
67822;BMP180;54434;50.096;20.082;2023-07-13T23:20:36;98970.60;;;15.30
67822;BMP180;54434;50.096;20.082;2023-07-13T23:23:17;98977.20;;;15.30
67822;BMP180;54434;50.096;20.082;2023-07-13T23:25:53;98971.20;;;15.20
67822;BMP180;54434;50.096;20.082;2023-07-13T23:28:30;98977.00;;;15.20
67822;BMP180;54434;50.096;20.082;2023-07-13T23:31:07;98978.40;;;15.20
67822;BMP180;54434;50.096;20.082;2023-07-13T23:33:45;98980.60;;;15.20
67822;BMP180;54434;50.096;20.082;2023-07-13T23:36:23;98988.20;;;15.20
67822;BMP180;54434;50.096;20.082;2023-07-13T23:39:00;98987.80;;;15.20
67822;BMP180;54434;50.096;20.082;2023-07-13T23:41:37;98985.00;;;15.10
67822;BMP180;54434;50.096;20.082;2023-07-13T23:44:14;98983.80;;;15.12
67822;BMP180;54434;50.096;20.082;2023-07-13T23:46:55;98982.60;;;15.12
67822;BMP180;54434;50.096;20.082;2023-07-13T23:49:33;98988.40;;;15.10
67822;BMP180;54434;50.096;20.082;2023-07-13T23:52:14;98990.20;;;15.10
67822;BMP180;54434;50.096;20.082;2023-07-13T23:54:51;98991.00;;;15.10
67822;BMP180;54434;50.096;20.082;2023-07-13T23:57:27;98992.40;;;15.10
